Pagina principale
METAR-TAF:

METAR-TAF

Aeroporti :

Aeroporto di Enfida-Hammamet

Hammamet, Tunisia

latitudine: 36-04-34N, longitudine: 10-26-19E, altezza: 6 m

Osservazione

Il bollettino è stato emesso 44 minuti fa, alle 05:00 UTC
Vento 5 kt da sud-est
Temperature 25°C
Umidità 74%
Pressione 1013 hPa
Visibilità 10 km o più
nessuna nube inferiore a 1500 m e nessun cumulonembo

METAR: DTNH 190500Z AUTO 14005KT CAVOK 25/20 Q1013

Ora: 06:44 (05:44 UTC)

Previsione

Il bollettino è stato emesso 6 ore e 44 minuti fa, alle 23:00 UTC
Previsione valida dal 19 alle 00 UTC al 19 alle 24 UTC
Vento 5 kt da sud-est
Visibilità 10 km o più
nessuna nube inferiore a 1500 m e nessun cumulonembo
Evoluzione graduale
dal 19 alle 10 UTC al 19 alle 12 UTC
Vento 15 kt da est
Evoluzione graduale
dal 19 alle 18 UTC al 19 alle 20 UTC
Vento 6 kt da est/sud-est

TAF: DTNH 182300Z 1900/1924 14005KT CAVOK BECMG 1910/1912 10015KT BECMG 1918/1920 12006KT

Osservazioni e previsioni meteorologiche di più di 4000 aeroporti (messaggi METAR e TAF).

Le stazioni disponibili sono rappresentate dai dischi gialli e rossi sulla carta.

Puntare il mouse per vedere il nome della stazione.

Clicca sopra per visualizzare le osservazioni e previsioni meteorologiche.

Per cambiare la mappa : fare clic sui pulsanti verdi con una croce nera per ingrandire, il pulsante verde con un trattino per diminuire, o sulla freccia verde per le mappe adiacenti.


METAR-TAF: